createdAt,value
2022-10-10T00:01:21.952Z,10.63
2022-10-10T00:03:49.029Z,9.93
2022-10-10T00:06:16.738Z,10.75
2022-10-10T00:08:46.649Z,7.28
2022-10-10T00:11:15.487Z,8.30
2022-10-10T00:13:42.543Z,8.13
2022-10-10T00:16:09.925Z,8.20
2022-10-10T00:18:37.572Z,7.35
2022-10-10T00:21:04.912Z,7.05
2022-10-10T00:23:31.877Z,10.40
2022-10-10T00:25:58.832Z,8.23
2022-10-10T00:28:25.826Z,10.93
2022-10-10T00:30:52.957Z,13.63
2022-10-10T00:33:20.343Z,7.68
2022-10-10T00:35:47.916Z,10.05
2022-10-10T00:38:14.976Z,9.48
2022-10-10T00:40:54.229Z,9.82
2022-10-10T00:43:22.659Z,11.23
2022-10-10T00:45:50.940Z,9.15
2022-10-10T00:48:36.765Z,14.93
2022-10-10T00:51:06.056Z,10.20
2022-10-10T00:53:52.207Z,11.07
2022-10-10T00:56:31.897Z,9.95
2022-10-10T00:59:04.185Z,9.45
2022-10-10T01:04:01.745Z,9.57
2022-10-10T01:06:29.563Z,11.75
2022-10-10T01:08:57.190Z,11.57
2022-10-10T01:11:26.684Z,13.13
2022-10-10T01:14:28.459Z,11.02
2022-10-10T01:17:01.750Z,8.68
2022-10-10T01:20:01.840Z,9.30
2022-10-10T01:22:40.753Z,10.35
2022-10-10T01:25:17.248Z,9.45
2022-10-10T01:27:44.012Z,12.98
2022-10-10T01:30:15.433Z,16.73
2022-10-10T01:32:54.214Z,10.00
2022-10-10T01:36:01.387Z,10.60
2022-10-10T01:38:33.943Z,13.02
2022-10-10T01:41:09.084Z,10.10
2022-10-10T01:43:36.875Z,11.43
2022-10-10T01:46:22.806Z,12.23
2022-10-10T01:49:12.731Z,12.63
2022-10-10T01:52:30.357Z,12.05
2022-10-10T01:55:50.010Z,13.55
2022-10-10T01:59:03.212Z,12.23
2022-10-10T02:02:19.042Z,16.77
2022-10-10T02:05:05.020Z,13.95
2022-10-10T02:07:56.184Z,15.98
2022-10-10T02:10:28.015Z,17.25
2022-10-10T02:12:57.532Z,19.13
2022-10-10T02:15:26.740Z,17.08
2022-10-10T02:17:55.678Z,19.50
2022-10-10T02:20:26.778Z,16.25
2022-10-10T02:22:56.575Z,15.73
2022-10-10T02:25:29.297Z,19.67
2022-10-10T02:28:11.443Z,18.42
2022-10-10T02:33:08.719Z,21.55
2022-10-10T02:35:41.284Z,23.08
2022-10-10T02:38:10.779Z,22.25
2022-10-10T02:40:39.984Z,17.95
2022-10-10T02:43:08.748Z,20.25
2022-10-10T02:45:35.980Z,19.88
2022-10-10T02:48:03.493Z,23.60
2022-10-10T02:50:31.768Z,20.58
2022-10-10T02:53:00.091Z,20.88
2022-10-10T02:58:10.080Z,23.63
2022-10-10T03:03:04.885Z,22.60
2022-10-10T03:05:32.049Z,19.13
2022-10-10T03:07:58.978Z,19.85
2022-10-10T03:10:25.960Z,19.70
2022-10-10T03:12:53.213Z,19.50
2022-10-10T03:15:20.220Z,18.35
2022-10-10T03:17:47.195Z,18.40
2022-10-10T03:20:13.992Z,18.80
2022-10-10T03:22:40.989Z,18.88
2022-10-10T03:25:08.428Z,18.45
2022-10-10T03:27:35.338Z,17.90
2022-10-10T03:30:02.915Z,19.13
2022-10-10T03:32:29.729Z,17.50
2022-10-10T03:34:56.941Z,18.17
2022-10-10T03:37:23.795Z,16.02
2022-10-10T03:39:50.891Z,18.42
2022-10-10T03:42:17.838Z,19.00
2022-10-10T03:44:44.763Z,18.23
2022-10-10T03:47:11.772Z,17.95
2022-10-10T03:49:38.692Z,19.10
2022-10-10T03:52:05.513Z,19.33
2022-10-10T03:54:32.980Z,18.92
2022-10-10T03:56:59.880Z,21.02
2022-10-10T03:59:26.771Z,20.90
2022-10-10T04:02:04.736Z,22.88
2022-10-10T04:04:32.099Z,17.70
2022-10-10T04:06:59.055Z,20.63
2022-10-10T04:12:10.930Z,18.08
2022-10-10T04:14:37.817Z,19.90
2022-10-10T04:17:04.687Z,16.15
2022-10-10T04:19:31.589Z,15.00
2022-10-10T04:21:58.326Z,17.27
2022-10-10T04:24:25.287Z,15.45
2022-10-10T04:26:52.020Z,18.70
2022-10-10T04:29:18.863Z,20.58
2022-10-10T04:31:45.686Z,13.90
2022-10-10T04:34:12.546Z,12.88
2022-10-10T04:36:39.390Z,13.20
2022-10-10T04:39:06.217Z,24.55
2022-10-10T04:41:32.965Z,17.27
2022-10-10T04:43:59.727Z,16.38
2022-10-10T04:46:26.715Z,21.83
2022-10-10T04:48:53.497Z,22.20
2022-10-10T04:51:20.341Z,16.42
2022-10-10T04:53:50.451Z,22.80
2022-10-10T04:56:17.490Z,18.33
2022-10-10T04:58:44.250Z,16.45
2022-10-10T05:01:11.053Z,16.88
2022-10-10T05:03:37.918Z,21.63
2022-10-10T05:06:04.831Z,20.65
2022-10-10T05:08:31.642Z,23.17
2022-10-10T05:10:58.441Z,18.90
2022-10-10T05:13:25.250Z,28.30
2022-10-10T05:15:52.572Z,20.45
2022-10-10T05:18:20.923Z,16.65
2022-10-10T05:20:47.898Z,14.45
2022-10-10T05:23:15.545Z,13.55
2022-10-10T05:25:49.765Z,10.52
2022-10-10T05:28:17.418Z,10.13
2022-10-10T05:30:44.275Z,10.20
2022-10-10T05:33:11.320Z,12.20
2022-10-10T05:35:38.093Z,14.23
2022-10-10T05:38:05.383Z,10.98
2022-10-10T05:40:32.162Z,10.93
2022-10-10T05:42:58.960Z,11.93
2022-10-10T05:45:25.757Z,11.35
2022-10-10T05:47:52.600Z,10.93
2022-10-10T05:50:31.617Z,12.85
2022-10-10T05:52:59.129Z,8.73
2022-10-10T05:55:25.939Z,9.23
2022-10-10T05:57:53.073Z,10.18
2022-10-10T06:00:20.065Z,7.15
2022-10-10T06:02:46.999Z,10.02
2022-10-10T06:05:14.194Z,10.20
2022-10-10T06:08:03.364Z,9.43
2022-10-10T06:10:27.759Z,9.02
2022-10-10T06:12:54.657Z,8.02
2022-10-10T06:15:21.548Z,9.45
2022-10-10T06:17:48.368Z,9.45
2022-10-10T06:20:15.457Z,11.93
2022-10-10T06:22:42.273Z,8.20
2022-10-10T06:25:24.001Z,7.22
2022-10-10T06:27:56.882Z,6.20
2022-10-10T06:30:23.855Z,7.70
2022-10-10T06:32:54.632Z,7.07
2022-10-10T06:35:26.132Z,6.43
2022-10-10T06:37:54.160Z,7.28
2022-10-10T06:40:20.916Z,6.28
2022-10-10T06:42:47.659Z,6.55
2022-10-10T06:45:14.427Z,5.28
2022-10-10T06:47:42.056Z,4.78
2022-10-10T06:50:09.079Z,5.03
2022-10-10T06:52:36.008Z,4.63
2022-10-10T06:55:02.835Z,6.40
2022-10-10T07:00:59.664Z,6.63
2022-10-10T07:03:28.229Z,5.30
2022-10-10T07:06:00.710Z,5.30
2022-10-10T07:08:28.624Z,5.85
2022-10-10T07:10:55.872Z,5.18
2022-10-10T07:13:22.697Z,5.85
2022-10-10T07:15:49.421Z,5.45
2022-10-10T07:18:18.746Z,5.88
2022-10-10T07:20:45.593Z,4.93
2022-10-10T07:23:12.508Z,6.30
2022-10-10T07:25:40.314Z,4.47
2022-10-10T07:28:08.363Z,7.68
2022-10-10T07:30:44.004Z,5.85
2022-10-10T07:35:54.159Z,7.32
2022-10-10T07:38:20.972Z,3.95
2022-10-10T07:40:47.764Z,5.95
2022-10-10T07:43:16.586Z,3.72
2022-10-10T07:45:43.334Z,6.82
2022-10-10T07:48:10.218Z,4.80
2022-10-10T07:50:41.928Z,7.28
2022-10-10T07:53:10.263Z,7.00
2022-10-10T07:58:41.174Z,4.95
2022-10-10T08:13:50.301Z,3.88
2022-10-10T08:16:17.854Z,4.30
2022-10-10T08:18:44.760Z,3.35
2022-10-10T08:21:13.294Z,3.63
2022-10-10T08:23:40.495Z,4.68
2022-10-10T08:26:09.383Z,5.32
2022-10-10T08:29:18.146Z,4.47
2022-10-10T08:36:08.258Z,3.47
2022-10-10T08:38:55.799Z,4.65
2022-10-10T08:41:43.221Z,4.43
2022-10-10T08:44:13.778Z,4.18
2022-10-10T08:47:03.284Z,3.05
2022-10-10T08:49:47.827Z,12.27
2022-10-10T08:52:53.710Z,4.03
2022-10-10T08:55:33.705Z,4.00
2022-10-10T08:58:19.806Z,3.60
2022-10-10T09:03:55.139Z,4.60
2022-10-10T09:06:46.811Z,3.10
2022-10-10T09:09:25.009Z,3.75
2022-10-10T09:12:18.691Z,3.97
2022-10-10T09:15:04.131Z,3.90
2022-10-10T09:17:51.753Z,9.32
2022-10-10T09:20:52.605Z,6.43
2022-10-10T09:27:12.278Z,6.78
2022-10-10T09:29:41.881Z,5.78
2022-10-10T09:32:25.579Z,4.38
2022-10-10T09:35:01.868Z,6.25
2022-10-10T09:37:46.885Z,5.13
2022-10-10T09:40:39.792Z,8.57
2022-10-10T09:43:17.618Z,4.30
2022-10-10T09:46:02.639Z,3.45
2022-10-10T09:48:32.878Z,5.13
2022-10-10T09:51:17.903Z,3.85
2022-10-10T09:53:48.260Z,5.88
2022-10-10T09:56:24.912Z,5.85
2022-10-10T09:59:07.893Z,4.70
2022-10-10T10:01:34.762Z,5.28
2022-10-10T10:04:28.189Z,9.82
2022-10-10T10:08:19.608Z,6.78
2022-10-10T10:11:32.081Z,9.20
2022-10-10T10:20:00.233Z,5.68
2022-10-10T10:22:34.848Z,7.47
2022-10-10T10:25:37.179Z,5.35
2022-10-10T10:28:21.319Z,5.78
2022-10-10T10:30:59.892Z,3.65
2022-10-10T10:49:14.627Z,6.18
2022-10-10T10:52:07.367Z,6.07
2022-10-10T10:54:52.286Z,3.42
2022-10-10T10:57:32.921Z,6.97
2022-10-10T11:00:20.398Z,4.90
2022-10-10T11:03:38.602Z,6.20
2022-10-10T11:06:28.296Z,5.15
2022-10-10T11:09:44.992Z,6.30
2022-10-10T11:12:29.083Z,6.50
2022-10-10T11:15:05.957Z,8.13
2022-10-10T11:17:41.291Z,6.38
2022-10-10T11:20:35.066Z,3.85
2022-10-10T11:23:17.886Z,6.20
2022-10-10T11:25:50.426Z,5.70
2022-10-10T11:28:33.085Z,5.43
2022-10-10T11:31:25.195Z,6.68
2022-10-10T11:33:57.764Z,5.07
2022-10-10T11:36:29.807Z,5.18
2022-10-10T11:39:15.503Z,4.25
2022-10-10T11:42:07.805Z,5.50
2022-10-10T11:44:39.577Z,4.35
2022-10-10T11:47:24.355Z,3.28
2022-10-10T11:50:15.958Z,4.90
2022-10-10T11:53:01.932Z,4.00
2022-10-10T11:56:02.503Z,8.52
2022-10-10T11:58:42.450Z,6.30
2022-10-10T12:01:19.991Z,4.30
2022-10-10T12:03:46.848Z,9.20
2022-10-10T12:06:33.589Z,5.75
2022-10-10T12:09:14.385Z,5.10
2022-10-10T12:11:48.528Z,4.93
2022-10-10T12:14:18.066Z,4.95
2022-10-10T12:16:45.255Z,10.20
2022-10-10T12:19:23.399Z,7.13
2022-10-10T12:22:06.030Z,6.22
2022-10-10T12:24:38.663Z,6.28
2022-10-10T12:27:07.820Z,3.95
2022-10-10T12:30:09.809Z,7.78
2022-10-10T12:35:38.974Z,6.18
2022-10-10T12:38:06.153Z,21.67
2022-10-10T12:40:35.195Z,10.32
2022-10-10T12:43:25.493Z,5.18
2022-10-10T12:45:57.718Z,18.95
2022-10-10T12:48:25.429Z,4.68
2022-10-10T12:51:00.396Z,4.97
2022-10-10T12:53:31.164Z,3.38
2022-10-10T12:56:00.965Z,6.30
2022-10-10T12:58:37.489Z,4.47
2022-10-10T13:01:08.941Z,5.15
2022-10-10T13:03:35.820Z,4.78
2022-10-10T13:06:08.028Z,6.00
2022-10-10T13:08:37.429Z,6.32
2022-10-10T13:11:12.968Z,4.20
2022-10-10T13:13:41.309Z,4.80
2022-10-10T13:16:14.310Z,7.07
2022-10-10T13:18:48.217Z,11.23
2022-10-10T13:21:18.548Z,7.50
2022-10-10T13:26:47.143Z,5.95
2022-10-10T13:29:23.040Z,6.93
2022-10-10T13:31:55.496Z,7.15
2022-10-10T13:34:27.444Z,5.07
2022-10-10T13:37:00.642Z,5.72
2022-10-10T13:39:30.923Z,5.47
2022-10-10T13:41:58.339Z,6.85
2022-10-10T13:44:34.195Z,6.28
2022-10-10T13:47:39.358Z,8.55
2022-10-10T13:50:21.626Z,8.52
2022-10-10T13:52:48.622Z,9.50
2022-10-10T13:55:25.777Z,6.72
2022-10-10T13:57:58.211Z,7.85
2022-10-10T14:00:30.575Z,7.18
2022-10-10T14:02:57.465Z,10.13
2022-10-10T14:05:29.247Z,7.38
2022-10-10T14:07:57.413Z,5.88
2022-10-10T14:10:27.489Z,5.28
2022-10-10T14:13:00.448Z,9.57
2022-10-10T14:15:35.239Z,6.63
2022-10-10T14:18:03.651Z,9.57
2022-10-10T14:20:30.564Z,6.63
2022-10-10T14:23:01.228Z,6.35
2022-10-10T14:25:28.029Z,8.15
2022-10-10T14:27:54.770Z,6.32
2022-10-10T14:30:22.138Z,7.80
2022-10-10T14:32:48.927Z,5.13
2022-10-10T14:35:15.989Z,8.35
2022-10-10T14:37:42.936Z,5.05
2022-10-10T14:40:20.187Z,10.27
2022-10-10T14:42:47.478Z,15.02
2022-10-10T14:45:16.570Z,9.85
2022-10-10T14:47:43.579Z,5.65
2022-10-10T14:50:19.827Z,9.50
2022-10-10T14:52:46.583Z,7.53
2022-10-10T14:55:14.022Z,6.43
2022-10-10T14:57:42.513Z,5.30
2022-10-10T15:02:39.861Z,5.45
2022-10-10T15:07:35.862Z,6.00
2022-10-10T15:10:32.052Z,7.32
2022-10-10T15:12:50.414Z,16.00
2022-10-10T15:15:17.307Z,16.30
2022-10-10T15:17:45.091Z,9.23
2022-10-10T15:20:13.037Z,11.35
2022-10-10T15:22:40.434Z,6.30
2022-10-10T15:25:08.451Z,12.88
2022-10-10T15:27:36.376Z,7.47
2022-10-10T15:30:04.049Z,12.13
2022-10-10T15:32:30.848Z,14.20
2022-10-10T15:34:57.797Z,7.38
2022-10-10T15:37:26.835Z,7.07
2022-10-10T15:39:53.907Z,8.60
2022-10-10T15:42:23.074Z,11.27
2022-10-10T15:44:51.237Z,6.07
2022-10-10T15:47:19.004Z,8.93
2022-10-10T15:49:45.823Z,5.43
2022-10-10T15:52:12.990Z,10.35
2022-10-10T15:54:41.013Z,7.63
2022-10-10T15:57:08.171Z,9.43
2022-10-10T15:59:37.882Z,11.23
2022-10-10T16:02:07.582Z,6.65
2022-10-10T16:04:34.418Z,10.10
2022-10-10T16:09:47.960Z,6.60
2022-10-10T16:12:14.821Z,8.60
2022-10-10T16:14:41.618Z,11.52
2022-10-10T16:17:08.506Z,13.82
2022-10-10T16:19:38.409Z,9.23
2022-10-10T16:22:05.349Z,8.77
2022-10-10T16:24:32.215Z,7.13
2022-10-10T16:26:59.667Z,16.73
2022-10-10T16:29:26.400Z,7.68
2022-10-10T16:31:53.137Z,5.97
2022-10-10T16:34:20.147Z,6.82
2022-10-10T16:36:46.906Z,8.55
2022-10-10T16:39:13.669Z,7.43
2022-10-10T16:41:48.051Z,9.82
2022-10-10T16:44:19.098Z,10.23
2022-10-10T16:46:45.898Z,10.93
2022-10-10T16:49:13.922Z,9.15
2022-10-10T16:51:44.284Z,9.43
2022-10-10T16:54:13.927Z,12.60
2022-10-10T16:56:42.706Z,9.95
2022-10-10T16:59:11.101Z,11.18
2022-10-10T17:01:39.063Z,15.02
2022-10-10T17:04:07.076Z,17.70
2022-10-10T17:06:38.045Z,12.10
2022-10-10T17:09:10.100Z,12.23
2022-10-10T17:11:37.692Z,8.85
2022-10-10T17:14:05.279Z,11.98
2022-10-10T17:19:21.145Z,8.77
2022-10-10T17:21:49.002Z,37.60
2022-10-10T17:24:17.892Z,30.73
2022-10-10T17:26:46.096Z,21.13
2022-10-10T17:29:14.667Z,21.05
2022-10-10T17:31:42.815Z,27.58
2022-10-10T17:34:10.084Z,18.30
2022-10-10T17:36:37.551Z,15.63
2022-10-10T17:39:05.097Z,11.00
2022-10-10T17:41:33.683Z,13.77
2022-10-10T17:44:01.092Z,9.82
2022-10-10T17:46:36.700Z,11.70
2022-10-10T17:49:07.913Z,11.10
2022-10-10T17:51:38.119Z,15.50
2022-10-10T17:54:09.309Z,10.93
2022-10-10T17:56:38.128Z,12.52
2022-10-10T17:59:07.204Z,12.95
2022-10-10T18:01:36.575Z,14.05
2022-10-10T18:04:03.942Z,17.00
2022-10-10T18:06:32.326Z,14.02
2022-10-10T18:09:00.549Z,18.02
2022-10-10T18:11:32.424Z,12.85
2022-10-10T18:14:03.361Z,16.73
2022-10-10T18:19:07.945Z,11.35
2022-10-10T18:21:47.203Z,18.27
2022-10-10T18:24:15.339Z,15.45
2022-10-10T18:26:42.317Z,13.73
2022-10-10T18:29:28.810Z,21.52
2022-10-10T18:31:59.977Z,18.75
2022-10-10T18:34:27.375Z,22.42
2022-10-10T18:36:56.260Z,15.52
2022-10-10T18:39:23.244Z,18.80
2022-10-10T18:41:50.273Z,21.25
2022-10-10T18:44:18.952Z,22.08
2022-10-10T18:46:46.433Z,20.25
2022-10-10T18:49:14.857Z,18.52
2022-10-10T18:51:43.482Z,15.88
2022-10-10T18:54:17.306Z,16.02
2022-10-10T18:56:45.434Z,13.82
2022-10-10T18:59:16.339Z,15.45
2022-10-10T19:01:45.980Z,18.17
2022-10-10T19:04:14.760Z,16.23
2022-10-10T19:06:42.840Z,20.90
2022-10-10T19:09:12.221Z,27.52
2022-10-10T19:11:41.389Z,40.95
2022-10-10T19:14:11.021Z,38.95
2022-10-10T19:16:39.599Z,36.90
2022-10-10T19:19:06.839Z,20.73
2022-10-10T19:21:38.201Z,23.10
2022-10-10T19:24:07.274Z,19.08
2022-10-10T19:26:35.211Z,15.07
2022-10-10T19:29:07.396Z,11.82
2022-10-10T19:31:38.454Z,11.10
2022-10-10T19:34:05.768Z,14.00
2022-10-10T19:36:32.836Z,15.27
2022-10-10T19:39:03.735Z,11.25
2022-10-10T19:41:30.906Z,18.60
2022-10-10T19:43:58.843Z,14.43
2022-10-10T19:46:27.310Z,16.17
2022-10-10T19:48:58.251Z,14.93
2022-10-10T19:51:29.554Z,17.38
2022-10-10T19:53:57.715Z,18.58
2022-10-10T19:56:27.171Z,17.00
2022-10-10T19:58:56.383Z,14.75
2022-10-10T20:01:29.064Z,10.40
2022-10-10T20:03:57.992Z,15.35
2022-10-10T20:06:25.243Z,12.02
2022-10-10T20:08:54.068Z,13.45
2022-10-10T20:11:27.151Z,14.60
2022-10-10T20:14:08.683Z,12.93
2022-10-10T20:25:07.684Z,10.48
2022-10-10T20:27:40.434Z,13.65
2022-10-10T20:30:16.523Z,14.43
2022-10-10T20:35:32.120Z,14.57
2022-10-10T20:38:03.545Z,14.50
2022-10-10T20:40:42.750Z,13.45
2022-10-10T20:43:15.969Z,12.70
2022-10-10T20:45:43.451Z,12.60
2022-10-10T20:48:10.954Z,10.95
2022-10-10T20:50:42.053Z,11.07
2022-10-10T20:53:13.421Z,12.30
2022-10-10T20:55:41.757Z,11.95
2022-10-10T20:58:10.034Z,11.88
2022-10-10T21:03:07.331Z,9.85
2022-10-10T21:05:36.120Z,12.65
2022-10-10T21:08:03.016Z,12.23
2022-10-10T21:10:30.155Z,9.45
2022-10-10T21:12:57.041Z,8.75
2022-10-10T21:15:23.969Z,10.05
2022-10-10T21:17:50.787Z,11.23
2022-10-10T21:20:17.788Z,10.05
2022-10-10T21:22:45.188Z,12.13
2022-10-10T21:25:13.372Z,11.57
2022-10-10T21:27:40.372Z,10.88
2022-10-10T21:30:08.308Z,11.05
2022-10-10T21:32:35.314Z,13.25
2022-10-10T21:35:02.197Z,13.48
2022-10-10T21:37:29.623Z,12.18
2022-10-10T21:39:56.544Z,8.90
2022-10-10T21:42:23.609Z,11.80
2022-10-10T21:44:50.398Z,9.07
2022-10-10T21:47:17.228Z,12.00
2022-10-10T21:49:44.237Z,12.27
2022-10-10T21:52:11.136Z,10.93
2022-10-10T21:54:38.446Z,11.27
2022-10-10T21:57:05.761Z,15.80
2022-10-10T21:59:32.739Z,11.85
2022-10-10T22:01:59.731Z,15.13
2022-10-10T22:04:29.026Z,17.27
2022-10-10T22:06:56.352Z,12.10
2022-10-10T22:09:23.164Z,13.02
2022-10-10T22:11:50.024Z,13.95
2022-10-10T22:14:16.902Z,11.65
2022-10-10T22:16:43.862Z,8.20
2022-10-10T22:19:10.793Z,10.45
2022-10-10T22:21:37.718Z,11.75
2022-10-10T22:24:07.323Z,9.23
2022-10-10T22:26:35.327Z,12.93
2022-10-10T22:29:02.346Z,9.45
2022-10-10T22:31:29.485Z,9.18
2022-10-10T22:33:56.687Z,11.57
2022-10-10T22:36:23.525Z,14.10
2022-10-10T22:38:50.467Z,11.95
2022-10-10T22:41:17.365Z,11.85
2022-10-10T22:43:44.262Z,9.13
2022-10-10T22:46:11.241Z,13.68
2022-10-10T22:48:38.354Z,13.05
2022-10-10T22:51:17.795Z,15.25
2022-10-10T22:53:46.433Z,13.65
2022-10-10T22:56:17.452Z,12.25
2022-10-10T22:58:44.321Z,13.93
2022-10-10T23:01:20.763Z,10.48
2022-10-10T23:03:47.833Z,10.43
2022-10-10T23:06:15.090Z,9.65
2022-10-10T23:08:41.932Z,12.18
2022-10-10T23:11:08.841Z,11.15
2022-10-10T23:13:35.939Z,13.32
2022-10-10T23:16:03.366Z,10.35
2022-10-10T23:18:30.909Z,8.27
2022-10-10T23:20:58.023Z,10.35
2022-10-10T23:23:25.257Z,11.43
2022-10-10T23:25:52.491Z,14.90
2022-10-10T23:28:19.350Z,16.63
2022-10-10T23:30:48.088Z,13.00
2022-10-10T23:33:16.508Z,11.00
2022-10-10T23:35:43.367Z,10.95
2022-10-10T23:38:10.336Z,15.63
2022-10-10T23:40:37.200Z,12.27
2022-10-10T23:43:04.497Z,13.45
2022-10-10T23:45:31.421Z,13.18
2022-10-10T23:47:58.373Z,14.02
2022-10-10T23:50:25.240Z,14.23
2022-10-10T23:52:52.136Z,16.75
2022-10-10T23:55:19.113Z,14.05
2022-10-10T23:57:46.044Z,11.73
